Time;durP1;ratioP1;P1;durP2;ratioP2;P2;SDS_P1;SDS_P2;PMS_P1;PMS_P2;Temp;Humidity;BMP_temperature;BMP_pressure;BME280_temperature;BME280_humidity;BME280_pressure;Samples;Min_cycle;Max_cycle;Signal;HPM_P1;HPM_P2
2023/10/13 00:00:47;;;;;;;74.20;34.47;;;;;;;-146.25;100.00;52337.78;2071967;28;42338;-64
2023/10/13 00:01:52;;;;;;;75.40;34.83;;;;;;;-146.25;100.00;52345.91;2072641;28;20047;-64
2023/10/13 00:02:54;;;;;;;82.22;35.58;;;;;;;-146.25;100.00;52384.41;2087966;28;37287;-64
2023/10/13 00:03:58;;;;;;;79.22;35.63;;;;;;;-146.25;100.00;52349.94;2086279;28;32679;-64
2023/10/13 00:05:00;;;;;;;82.20;36.42;;;;;;;-146.25;100.00;52331.69;2080190;28;35257;-64
2023/10/13 00:06:06;;;;;;;91.07;36.63;;;;;;;-146.25;100.00;52351.97;2080834;28;20046;-64
2023/10/13 00:07:09;;;;;;;83.40;36.10;;;;;;;-146.25;100.00;52319.53;2088533;28;36519;-64
2023/10/13 00:08:13;;;;;;;85.55;38.38;;;;;;;-146.25;100.00;52343.88;2087588;28;32388;-64
2023/10/13 00:09:15;;;;;;;92.57;39.80;;;;;;;-146.25;100.00;52339.81;2079366;28;32410;-64
2023/10/13 00:10:19;;;;;;;84.07;37.55;;;;;;;-146.25;100.00;52319.53;2081382;28;20851;-64
2023/10/13 00:11:21;;;;;;;88.68;39.25;;;;;;;-146.25;100.00;52364.13;2079567;28;40541;-64
2023/10/13 00:12:23;;;;;;;87.25;35.53;;;;;;;-146.25;100.00;52362.13;2080016;28;33991;-64
2023/10/13 00:13:42;;;;;;;92.07;38.40;;;;;;;-146.25;100.00;52372.25;2080594;28;35341;-65
2023/10/13 00:14:45;;;;;;;100.28;40.97;;;;;;;-146.25;100.00;52368.19;2079715;28;33124;-64
2023/10/13 00:15:57;;;;;;;88.85;38.38;;;;;;;-146.25;100.00;52327.66;2080923;28;34066;-64
2023/10/13 00:17:07;;;;;;;96.40;37.88;;;;;;;-146.25;100.00;52372.25;2080645;28;34814;-64
2023/10/13 00:18:12;;;;;;;;;;;;;;;-146.25;100.00;52331.69;2082095;28;20034;-64
2023/10/13 00:19:14;;;;;;;84.60;36.88;;;;;;;-146.25;100.00;52335.75;2079333;28;36832;-64
2023/10/13 00:20:38;;;;;;;103.45;40.60;;;;;;;-146.25;100.00;52360.09;2080083;28;35467;-64
2023/10/13 00:21:42;;;;;;;107.40;43.42;;;;;;;-146.25;100.00;52349.94;2080675;28;33568;-64
2023/10/13 00:22:48;;;;;;;107.45;42.95;;;;;;;-146.25;100.00;52364.13;2080012;28;40421;-64
2023/10/13 00:23:53;;;;;;;114.05;43.15;;;;;;;-146.25;100.00;52370.22;2081405;28;20984;-64
2023/10/13 00:24:58;;;;;;;115.97;44.22;;;;;;;-146.25;100.00;52341.84;2080219;28;33985;-64
2023/10/13 00:26:02;;;;;;;110.13;41.75;;;;;;;-146.25;100.00;52339.81;2079600;28;36856;-64
2023/10/13 00:27:06;;;;;;;106.13;43.67;;;;;;;-146.25;100.00;52376.31;2080295;28;35562;-64
2023/10/13 00:28:08;;;;;;;103.20;43.60;;;;;;;-146.25;100.00;52345.91;2080198;28;25271;-64
2023/10/13 00:30:22;;;;;;;110.63;42.83;;;;;;;-146.25;100.00;52339.81;2080155;28;20046;-64
2023/10/13 00:31:43;;;;;;;114.47;46.22;;;;;;;-146.25;100.00;52349.94;2079498;28;30404;-63
2023/10/13 00:32:56;;;;;;;105.88;43.78;;;;;;;-146.25;100.00;52341.84;2080312;28;20136;-64
2023/10/13 00:34:09;;;;;;;100.95;40.80;;;;;;;-146.25;100.00;52339.81;2076238;28;33693;-64
2023/10/13 00:38:16;;;;;;;;;;;;;;;-146.25;100.00;52343.88;2058250;28;34491;-64
2023/10/13 00:39:18;;;;;;;105.97;41.75;;;;;;;-146.25;100.00;52343.88;2063469;28;31557;-64
2023/10/13 00:41:52;;;;;;;114.38;44.40;;;;;;;-146.25;100.00;52360.09;2063400;28;23585;-64
2023/10/13 00:42:54;;;;;;;124.18;47.60;;;;;;;-146.25;100.00;52358.06;2081543;28;20191;-64
2023/10/13 00:44:04;;;;;;;118.65;45.63;;;;;;;-146.25;100.00;52341.84;2080238;28;30794;-64
2023/10/13 00:45:07;;;;;;;125.90;48.03;;;;;;;-146.25;100.00;52372.25;2080417;28;29329;-64
2023/10/13 00:46:12;;;;;;;112.78;43.97;;;;;;;-146.25;100.00;52354.00;2088121;28;28790;-64
2023/10/13 00:48:54;;;;;;;124.18;47.13;;;;;;;-146.25;100.00;52351.97;2062670;28;20162;-65
2023/10/13 00:49:56;;;;;;;126.55;47.05;;;;;;;-146.25;100.00;52384.41;2069645;28;20128;-65
2023/10/13 00:51:08;;;;;;;118.53;47.05;;;;;;;-146.25;100.00;52343.88;2071903;28;30285;-65
2023/10/13 00:52:10;;;;;;;123.80;46.80;;;;;;;-146.25;100.00;52380.38;2070239;28;26748;-67
2023/10/13 00:53:13;;;;;;;110.38;44.45;;;;;;;-146.25;100.00;52360.09;2078546;28;20943;-68
2023/10/13 00:54:18;;;;;;;120.57;46.97;;;;;;;-146.25;100.00;52315.47;2071726;28;20086;-67
2023/10/13 00:55:24;;;;;;;128.43;48.15;;;;;;;-146.25;100.00;52343.88;2063451;28;40266;-65
2023/10/13 00:56:27;;;;;;;126.47;47.88;;;;;;;-146.25;100.00;52354.00;2064071;28;27046;-66
2023/10/13 00:57:32;;;;;;;121.38;48.00;;;;;;;-146.25;100.00;52347.91;2071606;28;20047;-65
2023/10/13 00:58:35;;;;;;;121.10;47.78;;;;;;;-146.25;100.00;52358.06;2081061;28;20159;-66
2023/10/13 00:59:38;;;;;;;121.72;45.35;;;;;;;-146.25;100.00;52368.19;2080332;28;20046;-64
2023/10/13 01:00:55;;;;;;;123.03;48.50;;;;;;;-146.25;100.00;52398.59;2079460;28;34797;-65
2023/10/13 01:01:57;;;;;;;117.97;48.22;;;;;;;-146.25;100.00;52325.63;2080021;28;29040;-66
2023/10/13 01:03:07;;;;;;;131.35;50.60;;;;;;;-146.25;100.00;52358.06;2078534;28;30702;-65
2023/10/13 01:04:12;;;;;;;128.45;48.88;;;;;;;-146.25;100.00;52349.94;2080722;28;26747;-65
2023/10/13 01:05:19;;;;;;;125.72;47.97;;;;;;;-146.25;100.00;52333.72;2088368;28;20061;-65
2023/10/13 01:06:25;;;;;;;117.68;48.33;;;;;;;-146.25;100.00;52356.03;2080703;28;20124;-65
2023/10/13 01:07:29;;;;;;;130.65;50.20;;;;;;;-146.25;100.00;52329.66;2074181;28;23434;-65
2023/10/13 01:08:37;;;;;;;123.45;47.10;;;;;;;-146.25;100.00;52380.38;2079093;28;27087;-64
2023/10/13 01:09:43;;;;;;;116.72;47.50;;;;;;;-146.25;100.00;52380.38;2080556;28;29839;-65
2023/10/13 01:10:44;;;;;;;111.65;45.20;;;;;;;-146.25;100.00;52370.22;2080848;28;20050;-66
2023/10/13 01:11:53;;;;;;;126.00;49.72;;;;;;;-146.25;100.00;52388.47;2080807;28;20116;-65
2023/10/13 01:12:55;;;;;;;121.70;46.75;;;;;;;-146.25;100.00;52331.69;2078524;28;25049;-65
2023/10/13 01:13:58;;;;;;;113.45;46.95;;;;;;;-146.25;100.00;52319.53;2080042;28;20919;-65
2023/10/13 01:15:07;;;;;;;117.90;48.40;;;;;;;-146.25;100.00;52333.72;2087195;28;33389;-65
2023/10/13 01:16:10;;;;;;;125.25;49.28;;;;;;;-146.25;100.00;52329.66;2088458;28;20848;-65
2023/10/13 01:17:18;;;;;;;115.88;46.92;;;;;;;-146.25;100.00;52347.91;2079495;28;28578;-64
2023/10/13 01:18:20;;;;;;;116.57;48.35;;;;;;;-146.25;100.00;52354.00;2080417;28;21886;-65
2023/10/13 01:19:27;;;;;;;111.70;46.30;;;;;;;-146.25;100.00;52354.00;2080091;28;20956;-64
2023/10/13 01:20:29;;;;;;;109.05;47.63;;;;;;;-146.25;100.00;52351.97;2080026;28;27794;-65
2023/10/13 01:21:33;;;;;;;106.85;46.38;;;;;;;-146.25;100.00;52354.00;2080718;28;21013;-64
2023/10/13 01:22:38;;;;;;;110.22;46.28;;;;;;;-146.25;100.00;52372.25;2080100;28;30345;-66
2023/10/13 01:23:42;;;;;;;119.63;46.60;;;;;;;-146.25;100.00;52376.31;2079443;28;30792;-65
2023/10/13 01:24:45;;;;;;;116.07;47.42;;;;;;;-146.25;100.00;52354.00;2079393;28;35884;-65
2023/10/13 01:25:48;;;;;;;117.38;47.90;;;;;;;-146.25;100.00;52347.91;2079978;28;29040;-64
2023/10/13 01:26:52;;;;;;;113.07;46.95;;;;;;;-146.25;100.00;52339.81;2088156;28;20068;-65
2023/10/13 01:27:54;;;;;;;105.03;45.25;;;;;;;-146.25;100.00;52325.63;2079099;28;31396;-64
2023/10/13 01:28:59;;;;;;;95.65;44.05;;;;;;;-146.25;100.00;52329.66;2087363;28;30817;-65
2023/10/13 01:30:09;;;;;;;98.20;44.38;;;;;;;-146.25;100.00;52376.31;2087502;28;29923;-64
2023/10/13 01:31:13;;;;;;;99.45;43.83;;;;;;;-146.25;100.00;52333.72;2080074;28;31974;-65
2023/10/13 01:32:18;;;;;;;104.85;45.55;;;;;;;-146.25;100.00;52368.19;2079469;28;28869;-64
2023/10/13 01:33:26;;;;;;;106.88;45.90;;;;;;;-146.25;100.00;52339.81;2078569;28;29935;-64
2023/10/13 01:34:33;;;;;;;102.03;45.67;;;;;;;-146.25;100.00;52331.69;2080237;28;23794;-65
2023/10/13 01:35:47;;;;;;;112.20;46.55;;;;;;;-146.25;100.00;52339.81;2079822;28;24545;-64
2023/10/13 01:36:53;;;;;;;105.55;45.13;;;;;;;-146.25;100.00;52343.88;2081649;28;23547;-65
2023/10/13 01:37:55;;;;;;;106.05;44.78;;;;;;;-146.25;100.00;52343.88;2078851;28;20104;-65
2023/10/13 01:39:01;;;;;;;110.43;45.10;;;;;;;-146.25;100.00;52327.66;2080101;28;29709;-64
2023/10/13 01:40:04;;;;;;;104.18;46.65;;;;;;;-146.25;100.00;52339.81;2079544;28;30921;-64
2023/10/13 01:41:08;;;;;;;104.70;47.67;;;;;;;-146.25;100.00;52368.19;2079851;28;20993;-65
2023/10/13 01:42:14;;;;;;;99.93;44.63;;;;;;;-146.25;100.00;52366.16;2079453;28;33326;-65
2023/10/13 01:43:17;;;;;;;97.07;43.97;;;;;;;-146.25;100.00;52356.03;2086754;28;20038;-64
2023/10/13 01:44:19;;;;;;;102.13;45.65;;;;;;;-146.25;100.00;52331.69;2079446;28;25862;-65
2023/10/13 01:45:28;;;;;;;95.53;43.55;;;;;;;-146.25;100.00;52356.03;2079802;28;20793;-65
2023/10/13 01:46:30;;;;;;;109.85;46.80;;;;;;;-146.25;100.00;52364.13;2080095;28;31885;-64
2023/10/13 01:47:35;;;;;;;96.32;44.78;;;;;;;-146.25;100.00;52356.03;2088482;28;20950;-64
2023/10/13 01:48:40;;;;;;;97.75;44.67;;;;;;;-146.25;100.00;52356.03;2078645;28;25529;-64
2023/10/13 01:49:42;;;;;;;95.40;43.30;;;;;;;-146.25;100.00;52349.94;2079663;28;20597;-64
2023/10/13 01:50:55;;;;;;;100.85;44.47;;;;;;;-146.25;100.00;52351.97;2087846;28;20041;-64
2023/10/13 01:51:59;;;;;;;104.05;46.58;;;;;;;-146.25;100.00;52390.50;2079794;28;31416;-64
2023/10/13 01:53:13;;;;;;;104.47;45.45;;;;;;;-146.25;100.00;52382.38;2080300;28;20034;-64
2023/10/13 01:54:15;;;;;;;104.35;44.85;;;;;;;-146.25;100.00;52382.38;2080309;28;25022;-64
2023/10/13 01:55:19;;;;;;;105.90;45.90;;;;;;;-146.25;100.00;52343.88;2088050;28;20034;-64
2023/10/13 01:56:23;;;;;;;104.63;46.08;;;;;;;-146.25;100.00;52335.75;2079504;28;20053;-64
2023/10/13 01:57:25;;;;;;;89.53;42.85;;;;;;;-146.25;100.00;52341.84;2071920;28;20105;-64
2023/10/13 01:58:29;;;;;;;103.80;46.20;;;;;;;-146.25;100.00;52386.44;2078291;28;25490;-64
2023/10/13 01:59:31;;;;;;;91.68;43.20;;;;;;;-146.25;100.00;52323.59;2079755;28;20804;-64
2023/10/13 02:00:39;;;;;;;100.43;46.15;;;;;;;-146.25;100.00;52366.16;2075764;28;20046;-64
2023/10/13 02:01:41;;;;;;;98.60;44.38;;;;;;;-146.25;100.00;52335.75;2071457;28;20102;-64
2023/10/13 02:02:45;;;;;;;99.07;44.47;;;;;;;-146.25;100.00;52368.19;2071835;28;20042;-64
2023/10/13 02:03:48;;;;;;;108.57;46.03;;;;;;;-146.25;100.00;52364.13;2076967;28;28635;-64
2023/10/13 02:04:55;;;;;;;104.55;47.30;;;;;;;-146.25;100.00;52358.06;2087890;28;20044;-64
2023/10/13 02:06:03;;;;;;;90.47;43.78;;;;;;;-146.25;100.00;52339.81;2079652;28;30260;-65
2023/10/13 02:07:08;;;;;;;;;;;;;;;-146.25;100.00;52388.47;2080170;28;20101;-64
2023/10/13 02:08:17;;;;;;;94.78;43.33;;;;;;;-146.25;100.00;52392.53;2079109;28;24396;-65
2023/10/13 02:09:29;;;;;;;91.85;43.13;;;;;;;-146.25;100.00;52341.84;2079733;28;31145;-63
2023/10/13 02:10:33;;;;;;;96.97;44.30;;;;;;;-146.25;100.00;52356.03;2079448;28;32410;-64
2023/10/13 02:11:45;;;;;;;106.63;46.13;;;;;;;-146.25;100.00;52356.03;2080334;28;20074;-62
2023/10/13 02:12:47;;;;;;;101.20;46.70;;;;;;;-146.25;100.00;52360.09;2087262;28;20172;-64
2023/10/13 02:13:51;;;;;;;106.22;47.50;;;;;;;-146.25;100.00;52335.75;2079213;28;23630;-63
2023/10/13 02:14:53;;;;;;;106.70;47.10;;;;;;;-146.25;100.00;52341.84;2079791;28;20034;-64
2023/10/13 02:16:03;;;;;;;103.05;46.90;;;;;;;-146.25;100.00;52315.47;2079668;28;20073;-63
2023/10/13 02:17:16;;;;;;;;;;;;;;;-146.25;100.00;52345.91;2080157;28;28677;-64
2023/10/13 02:18:26;;;;;;;100.28;45.50;;;;;;;-146.25;100.00;52370.22;2079541;28;20874;-64
2023/10/13 02:19:28;;;;;;;104.45;46.47;;;;;;;-146.25;100.00;52311.44;2087657;28;20088;-64
2023/10/13 02:20:41;;;;;;;103.63;46.78;;;;;;;-146.25;100.00;52364.13;2088098;28;20879;-64
2023/10/13 02:21:44;;;;;;;96.18;45.42;;;;;;;-146.25;100.00;52323.59;2080845;28;20046;-64
2023/10/13 02:22:51;;;;;;;104.85;46.72;;;;;;;-146.25;100.00;52360.09;2079994;28;23874;-63
2023/10/13 02:23:59;;;;;;;102.15;46.72;;;;;;;-146.25;100.00;52368.19;2079640;28;20034;-64
2023/10/13 02:25:05;;;;;;;101.03;46.13;;;;;;;-146.25;100.00;52311.44;2079080;28;20046;-64
2023/10/13 02:26:12;;;;;;;95.47;44.17;;;;;;;-146.25;100.00;52354.00;2080469;28;20136;-63
2023/10/13 02:27:14;;;;;;;104.57;46.50;;;;;;;-146.25;100.00;52364.13;2079541;28;21757;-64
2023/10/13 02:28:21;;;;;;;99.28;47.70;;;;;;;-146.25;100.00;52376.31;2079460;28;20050;-63
2023/10/13 02:29:23;;;;;;;99.60;45.38;;;;;;;-146.25;100.00;52386.44;2072012;28;31082;-64
2023/10/13 02:30:30;;;;;;;106.28;48.45;;;;;;;-146.25;100.00;52335.75;2079695;28;20100;-63
2023/10/13 02:31:33;;;;;;;98.88;46.60;;;;;;;-146.25;100.00;52351.97;2080086;28;26154;-65
2023/10/13 02:32:40;;;;;;;94.05;44.97;;;;;;;-146.25;100.00;52368.19;2079952;28;25490;-64
2023/10/13 02:33:44;;;;;;;100.40;48.10;;;;;;;-146.25;100.00;52337.78;2078819;28;28562;-64
2023/10/13 02:34:47;;;;;;;108.70;46.05;;;;;;;-146.25;100.00;52364.13;2079028;28;20062;-64
2023/10/13 02:35:55;;;;;;;96.28;45.58;;;;;;;-146.25;100.00;52364.13;2079493;28;27625;-63
2023/10/13 02:36:58;;;;;;;103.32;47.92;;;;;;;-146.25;100.00;52351.97;2080082;28;20045;-63
2023/10/13 02:38:10;;;;;;;99.43;45.53;;;;;;;-146.25;100.00;52376.31;2078909;28;30717;-64
2023/10/13 02:39:13;;;;;;;100.03;45.33;;;;;;;-146.25;100.00;52335.75;2080437;28;20943;-65
2023/10/13 02:40:15;;;;;;;95.47;44.88;;;;;;;-146.25;100.00;52372.25;2079929;28;20046;-63
2023/10/13 02:41:28;;;;;;;94.35;46.85;;;;;;;-146.25;100.00;52370.22;2078779;28;28150;-63
2023/10/13 02:42:31;;;;;;;97.00;46.67;;;;;;;-146.25;100.00;52356.03;2087410;28;29637;-63
2023/10/13 02:43:35;;;;;;;94.13;46.17;;;;;;;-146.25;100.00;52364.13;2087988;28;20029;-64
2023/10/13 02:44:41;;;;;;;104.55;47.35;;;;;;;-146.25;100.00;52356.03;2087546;28;20131;-63
2023/10/13 02:45:57;;;;;;;105.15;46.28;;;;;;;-146.25;100.00;52337.78;2087023;28;28499;-64
2023/10/13 02:47:13;;;;;;;99.95;46.13;;;;;;;-146.25;100.00;52343.88;2078887;28;26773;-64
2023/10/13 02:48:21;;;;;;;92.65;46.03;;;;;;;-146.25;100.00;52341.84;2079801;28;20030;-64
2023/10/13 02:49:27;;;;;;;96.45;47.17;;;;;;;-146.25;100.00;52364.13;2086221;28;28472;-64
2023/10/13 02:50:32;;;;;;;99.00;45.60;;;;;;;-146.25;100.00;52354.00;2071474;28;27489;-64
2023/10/13 02:51:35;;;;;;;97.82;47.47;;;;;;;-146.25;100.00;52360.09;2073445;28;20053;-64
2023/10/13 02:52:41;;;;;;;98.40;45.95;;;;;;;-146.25;100.00;52356.03;2087424;28;20464;-64
2023/10/13 02:53:52;;;;;;;97.35;46.97;;;;;;;-146.25;100.00;52360.09;2087493;28;28742;-63
2023/10/13 02:54:54;;;;;;;100.32;46.95;;;;;;;-146.25;100.00;52360.09;2086473;28;20046;-64
2023/10/13 02:56:05;;;;;;;92.93;46.13;;;;;;;-146.25;100.00;52335.75;2079389;28;20038;-65
2023/10/13 02:57:07;;;;;;;102.32;48.03;;;;;;;-146.25;100.00;52341.84;2078336;28;25696;-64
2023/10/13 02:58:09;;;;;;;94.63;46.88;;;;;;;-146.25;100.00;52368.19;2080001;28;35997;-64
2023/10/13 02:59:12;;;;;;;94.15;46.35;;;;;;;-146.25;100.00;52319.53;2079489;28;26205;-66
2023/10/13 03:00:15;;;;;;;99.70;46.78;;;;;;;-146.25;100.00;52380.38;2087122;28;30909;-64
2023/10/13 03:01:19;;;;;;;100.43;46.58;;;;;;;-146.25;100.00;52347.91;2079160;28;20809;-63
2023/10/13 03:02:25;;;;;;;99.32;47.78;;;;;;;-146.25;100.00;52343.88;2078948;28;25920;-64
2023/10/13 03:03:29;;;;;;;97.50;46.88;;;;;;;-146.25;100.00;52364.13;2087166;28;31350;-65
2023/10/13 03:04:32;;;;;;;95.15;47.33;;;;;;;-146.25;100.00;52351.97;2085343;28;20049;-65
2023/10/13 03:05:39;;;;;;;103.18;48.17;;;;;;;-146.25;100.00;52382.38;2087715;28;20974;-66
2023/10/13 03:06:41;;;;;;;95.18;47.03;;;;;;;-146.25;100.00;52313.44;2086667;28;31360;-65
2023/10/13 03:07:43;;;;;;;101.15;45.90;;;;;;;-146.25;100.00;52337.78;2080091;28;21991;-67
2023/10/13 03:08:46;;;;;;;101.38;48.42;;;;;;;-146.25;100.00;52368.19;2079736;28;30720;-67
2023/10/13 03:09:51;;;;;;;91.75;46.08;;;;;;;-146.25;100.00;52341.84;2080121;28;20034;-65
2023/10/13 03:10:54;;;;;;;95.90;45.95;;;;;;;-146.25;100.00;52335.75;2088136;28;20750;-66
2023/10/13 03:11:56;;;;;;;95.05;46.28;;;;;;;-146.25;100.00;52376.31;2079053;28;27058;-66
2023/10/13 03:12:58;;;;;;;90.20;45.80;;;;;;;-146.25;100.00;52360.09;2079840;28;20176;-66
2023/10/13 03:14:01;;;;;;;91.10;45.85;;;;;;;-146.25;100.00;52368.19;2079993;28;25279;-66
2023/10/13 03:16:19;;;;;;;90.13;44.40;;;;;;;-146.25;100.00;52319.53;2079619;28;21017;-65
2023/10/13 03:17:33;;;;;;;96.32;47.20;;;;;;;-146.25;100.00;52378.34;2079120;28;27728;-66
2023/10/13 03:18:37;;;;;;;91.95;44.67;;;;;;;-146.25;100.00;52327.66;2080009;28;28898;-66
2023/10/13 03:19:49;;;;;;;91.93;44.97;;;;;;;-146.25;100.00;52358.06;2079344;28;29304;-66
2023/10/13 03:20:57;;;;;;;92.65;44.17;;;;;;;-146.25;100.00;52351.97;2070894;28;20176;-66
2023/10/13 03:22:09;;;;;;;91.43;44.00;;;;;;;-146.25;100.00;52358.06;2072739;28;20184;-65
2023/10/13 03:23:11;;;;;;;96.75;44.97;;;;;;;-146.25;100.00;52351.97;2085513;28;35506;-66
2023/10/13 03:24:13;;;;;;;83.57;43.50;;;;;;;-146.25;100.00;52343.88;2078576;28;29662;-66
2023/10/13 03:25:24;;;;;;;96.63;46.15;;;;;;;-146.25;100.00;52331.69;2079594;28;28936;-67
2023/10/13 03:26:28;;;;;;;85.90;43.30;;;;;;;-146.25;100.00;52343.88;2079070;28;20041;-65
2023/10/13 03:28:53;;;;;;;79.68;41.15;;;;;;;-146.25;100.00;52321.56;2077934;28;31868;-66
2023/10/13 03:29:56;;;;;;;79.72;42.08;;;;;;;-146.25;100.00;52351.97;2079395;28;24627;-65
2023/10/13 03:31:01;;;;;;;83.53;42.92;;;;;;;-146.25;100.00;52347.91;2079540;28;35083;-66
2023/10/13 03:32:11;;;;;;;82.85;41.90;;;;;;;-146.25;100.00;52368.19;2079892;28;30205;-65
2023/10/13 03:33:14;;;;;;;82.15;43.58;;;;;;;-146.25;100.00;52331.69;2079768;28;37074;-64
2023/10/13 03:34:19;;;;;;;83.95;42.72;;;;;;;-146.25;100.00;52347.91;2085429;28;36754;-66
2023/10/13 03:35:24;;;;;;;79.43;40.10;;;;;;;-146.25;100.00;52337.78;2086662;28;36322;-66
2023/10/13 03:37:46;;;;;;;78.78;40.05;;;;;;;-146.25;100.00;52347.91;2084859;28;20042;-65
2023/10/13 03:38:54;;;;;;;77.07;40.25;;;;;;;-146.25;100.00;52349.94;2079693;28;35563;-65
2023/10/13 03:39:59;;;;;;;77.82;40.92;;;;;;;-146.25;100.00;52364.13;2079593;28;30379;-65
2023/10/13 03:41:08;;;;;;;87.43;41.80;;;;;;;-146.25;100.00;52343.88;2079751;28;21413;-65
2023/10/13 03:42:18;;;;;;;77.43;39.42;;;;;;;-146.25;100.00;52331.69;2087060;28;31188;-65
2023/10/13 03:43:23;;;;;;;72.82;39.38;;;;;;;-146.25;100.00;52376.31;2085895;28;33556;-66
2023/10/13 03:44:30;;;;;;;71.90;38.60;;;;;;;-146.25;100.00;52378.34;2079440;28;31296;-65
2023/10/13 03:45:43;;;;;;;64.55;37.38;;;;;;;-146.25;100.00;52337.78;2079366;28;31680;-65
2023/10/13 03:46:47;;;;;;;73.70;38.95;;;;;;;-146.25;100.00;52354.00;2079615;28;34252;-65
2023/10/13 03:47:51;;;;;;;69.35;38.05;;;;;;;-146.25;100.00;52386.44;2078859;28;36299;-65
2023/10/13 03:49:01;;;;;;;69.68;37.58;;;;;;;-146.25;100.00;52364.13;2078021;28;33420;-65
2023/10/13 03:50:15;;;;;;;64.83;36.10;;;;;;;-146.25;100.00;52368.19;2078276;28;37820;-65
2023/10/13 03:51:17;;;;;;;69.07;37.35;;;;;;;-146.25;100.00;52362.13;2079049;28;32701;-65
2023/10/13 03:52:22;;;;;;;66.15;36.47;;;;;;;-146.25;100.00;52333.72;2076302;28;36221;-65
2023/10/13 03:53:25;;;;;;;75.18;39.38;;;;;;;-146.25;100.00;52343.88;2071431;28;34422;-65
2023/10/13 03:54:30;;;;;;;65.55;37.72;;;;;;;-146.25;100.00;52362.13;2074669;28;33292;-65
2023/10/13 03:55:35;;;;;;;65.57;37.17;;;;;;;-146.25;100.00;52372.25;2079067;28;36326;-64
2023/10/13 03:56:39;;;;;;;63.55;36.75;;;;;;;-146.25;100.00;52360.09;2079032;28;35151;-65
2023/10/13 03:57:42;;;;;;;61.83;34.78;;;;;;;-146.25;100.00;52325.63;2079797;28;20867;-65
2023/10/13 03:58:46;;;;;;;64.75;36.30;;;;;;;-146.25;100.00;52327.66;2079662;28;34700;-65
2023/10/13 03:59:48;;;;;;;60.65;34.20;;;;;;;-146.25;100.00;52362.13;2078381;28;36210;-65
2023/10/13 04:00:52;;;;;;;62.88;35.30;;;;;;;-146.25;100.00;52394.56;2078817;28;32778;-65
2023/10/13 04:02:02;;;;;;;62.38;33.65;;;;;;;-146.25;100.00;52323.59;2079050;28;35009;-64
2023/10/13 04:03:16;;;;;;;62.65;35.13;;;;;;;-146.25;100.00;52351.97;2080238;28;20038;-65
2023/10/13 04:08:44;;;;;;;60.00;34.88;;;;;;;-146.25;100.00;52343.88;2079517;28;28818;-64
2023/10/13 04:14:21;;;;;;;55.35;34.03;;;;;;;-146.25;100.00;52372.25;2078362;28;35857;-64
2023/10/13 04:17:29;;;;;;;60.17;34.67;;;;;;;-146.25;100.00;52354.00;2079776;28;34905;-64
2023/10/13 04:18:46;;;;;;;56.50;32.85;;;;;;;-146.25;100.00;52378.34;2078966;28;39179;-65
2023/10/13 04:21:18;;;;;;;53.92;33.60;;;;;;;-146.25;100.00;52351.97;2087290;28;37299;-65
2023/10/13 04:22:22;;;;;;;62.28;35.45;;;;;;;-146.25;100.00;52347.91;2083007;28;35539;-65
2023/10/13 04:23:26;;;;;;;56.60;34.20;;;;;;;-146.25;100.00;52331.69;2087163;28;28866;-65
2023/10/13 04:24:39;;;;;;;57.88;33.70;;;;;;;-146.25;100.00;52360.09;2086017;28;27963;-65
2023/10/13 04:29:27;;;;;;;59.30;35.13;;;;;;;-146.25;100.00;52384.41;2078263;28;36023;-65
2023/10/13 04:30:47;;;;;;;53.80;32.70;;;;;;;-146.25;100.00;52358.06;2079717;28;28319;-64
2023/10/13 04:32:00;;;;;;;64.18;34.65;;;;;;;-146.25;100.00;52392.53;2088416;28;31708;-65
2023/10/13 04:33:35;;;;;;;61.97;35.70;;;;;;;-146.25;100.00;52380.38;2085957;28;39135;-66
2023/10/13 04:34:38;;;;;;;55.60;33.80;;;;;;;-146.25;100.00;52358.06;2079766;28;33903;-65
2023/10/13 04:35:47;;;;;;;61.42;35.28;;;;;;;-146.25;100.00;52374.28;2080631;28;37520;-65
2023/10/13 04:36:55;;;;;;;54.47;33.97;;;;;;;-146.25;100.00;52364.13;2080641;28;32121;-66
2023/10/13 04:38:01;;;;;;;55.67;33.42;;;;;;;-146.25;100.00;52370.22;2080354;28;37505;-66
2023/10/13 04:40:11;;;;;;;60.00;35.08;;;;;;;-146.25;100.00;52337.78;2079916;28;20030;-66
2023/10/13 04:41:22;;;;;;;59.22;35.15;;;;;;;-146.25;100.00;52351.97;2079910;28;37204;-64
2023/10/13 04:42:39;;;;;;;58.90;34.30;;;;;;;-146.25;100.00;52354.00;2080699;28;34813;-66
2023/10/13 04:43:55;;;;;;;54.80;34.78;;;;;;;-146.25;100.00;52339.81;2080702;28;33873;-66
2023/10/13 04:45:03;;;;;;;58.50;34.88;;;;;;;-146.25;100.00;52323.59;2079947;28;20084;-66
2023/10/13 04:47:29;;;;;;;;;;;;;;;-146.25;100.00;52400.63;2081064;28;34773;-66
2023/10/13 04:48:38;;;;;;;57.70;33.28;;;;;;;-146.25;100.00;52351.97;2080769;28;28372;-66
2023/10/13 04:50:59;;;;;;;56.80;34.42;;;;;;;-146.25;100.00;52384.41;2080871;28;35545;-67
2023/10/13 04:54:45;;;;;;;53.08;33.45;;;;;;;-146.25;100.00;52339.81;2080645;28;35034;-66
2023/10/13 05:00:10;;;;;;;53.75;33.58;;;;;;;-146.25;100.00;52398.59;2084987;28;37656;-66
2023/10/13 05:03:53;;;;;;;52.72;32.45;;;;;;;-146.25;100.00;52345.91;2083847;28;31016;-66
2023/10/13 05:44:56;;;;;;;46.08;29.48;;;;;;;-146.25;100.00;52366.16;2086030;28;38470;-66
2023/10/13 05:51:43;;;;;;;46.97;30.13;;;;;;;-146.25;100.00;52364.13;2064476;28;20149;-66
2023/10/13 06:29:07;;;;;;;;;;;;;;;-146.25;100.00;52358.06;2072614;28;20444;-67
2023/10/13 06:30:10;;;;;;;43.17;26.23;;;;;;;-146.25;100.00;52386.44;2071627;28;40363;-66
2023/10/13 06:31:21;;;;;;;42.95;26.52;;;;;;;-146.25;100.00;52345.91;2078307;28;29364;-66
2023/10/13 06:32:25;;;;;;;47.60;27.38;;;;;;;-146.25;100.00;52378.34;2079034;28;34146;-66
2023/10/13 06:33:33;;;;;;;47.33;28.05;;;;;;;-146.25;100.00;52356.03;2076751;28;40850;-66
2023/10/13 06:34:45;;;;;;;40.90;26.30;;;;;;;-146.25;100.00;52382.38;2072824;28;20053;-65
2023/10/13 06:35:56;;;;;;;46.42;26.77;;;;;;;-146.25;100.00;52384.41;2073380;28;35120;-65
2023/10/13 06:36:58;;;;;;;44.50;25.60;;;;;;;-146.25;100.00;52380.38;2087336;28;34868;-65
2023/10/13 06:38:03;;;;;;;46.95;27.35;;;;;;;-146.25;100.00;52368.19;2086547;28;33921;-65
2023/10/13 06:39:35;;;;;;;48.13;26.70;;;;;;;-146.25;100.00;52335.75;2080463;28;20160;-66
2023/10/13 06:40:39;;;;;;;41.63;26.10;;;;;;;-146.25;100.00;52400.63;2077104;28;36034;-63
2023/10/13 06:41:41;;;;;;;38.55;24.45;;;;;;;-146.25;100.00;52390.50;2076578;28;35673;-64
2023/10/13 06:42:45;;;;;;;44.75;24.77;;;;;;;-146.25;100.00;52368.19;2078661;28;34440;-67
2023/10/13 06:43:59;;;;;;;37.17;23.48;;;;;;;-146.25;100.00;52368.19;2078924;28;20990;-65
2023/10/13 06:45:08;;;;;;;40.10;24.00;;;;;;;-146.25;100.00;52374.28;2071454;28;38635;-64
2023/10/13 06:46:23;;;;;;;39.30;23.88;;;;;;;-146.25;100.00;52347.91;2079138;28;35766;-63
2023/10/13 06:47:27;;;;;;;38.83;23.92;;;;;;;-146.25;100.00;52392.53;2078553;28;37415;-62
2023/10/13 06:48:33;;;;;;;39.83;24.30;;;;;;;-146.25;100.00;52360.09;2079328;28;34245;-63
2023/10/13 06:49:38;;;;;;;41.67;23.67;;;;;;;-146.25;100.00;52410.78;2082734;28;37311;-64
2023/10/13 06:50:48;;;;;;;41.40;24.33;;;;;;;-146.25;100.00;52364.13;2078115;28;20790;-65
2023/10/13 06:51:51;;;;;;;39.55;22.88;;;;;;;-146.25;100.00;52400.63;2079135;28;35600;-63
2023/10/13 06:52:54;;;;;;;38.00;23.45;;;;;;;-146.25;100.00;52364.13;2077121;28;35966;-63
2023/10/13 06:53:57;;;;;;;33.45;21.02;;;;;;;-146.25;100.00;52382.38;2071753;28;34990;-66
2023/10/13 06:55:04;;;;;;;39.15;22.27;;;;;;;-146.25;100.00;52364.13;2078524;28;37388;-66
2023/10/13 06:56:07;;;;;;;40.70;22.98;;;;;;;-146.25;100.00;52382.38;2078387;28;20030;-66